createdAt,value
2019-01-30T00:02:07.318Z,98951.92
2019-01-30T00:04:37.755Z,98944.38
2019-01-30T00:07:09.924Z,98935.40
2019-01-30T00:09:40.277Z,98932.16
2019-01-30T00:12:10.720Z,98931.18
2019-01-30T00:14:41.158Z,98922.88
2019-01-30T00:17:11.665Z,98926.17
2019-01-30T00:19:42.707Z,98924.08
2019-01-30T00:22:12.976Z,98919.98
2019-01-30T00:24:43.351Z,98914.86
2019-01-30T00:27:13.696Z,98916.53
2019-01-30T00:29:44.414Z,98912.06
2019-01-30T00:32:15.174Z,98906.80
2019-01-30T00:34:45.561Z,98915.23
2019-01-30T00:37:15.920Z,98907.81
2019-01-30T00:39:46.408Z,98906.77
2019-01-30T00:42:16.746Z,98899.95
2019-01-30T00:44:49.151Z,98899.95
2019-01-30T00:47:19.520Z,98896.24
2019-01-30T00:49:49.902Z,98892.75
2019-01-30T00:52:20.304Z,98890.28
2019-01-30T00:54:50.765Z,98895.64
2019-01-30T00:57:21.197Z,98887.27
2019-01-30T00:59:51.712Z,98890.31
2019-01-30T01:02:22.161Z,98886.73
2019-01-30T01:04:52.729Z,98879.34
2019-01-30T01:07:23.176Z,98877.12
2019-01-30T01:09:54.014Z,98875.58
2019-01-30T01:12:24.415Z,98871.07
2019-01-30T01:14:54.808Z,98870.22
2019-01-30T01:17:25.360Z,98861.25
2019-01-30T01:19:56.522Z,98864.89
2019-01-30T01:22:26.982Z,98851.77
2019-01-30T01:24:57.402Z,98845.14
2019-01-30T01:27:27.834Z,98839.22
2019-01-30T01:29:58.530Z,98835.52
2019-01-30T01:32:28.955Z,98834.72
2019-01-30T01:34:59.319Z,98831.36
2019-01-30T01:37:30.657Z,98832.69
2019-01-30T01:40:01.262Z,98833.36
2019-01-30T01:42:31.630Z,98827.05
2019-01-30T01:45:01.992Z,98825.31
2019-01-30T01:47:32.328Z,98824.64
2019-01-30T01:50:05.855Z,98825.69
2019-01-30T01:52:36.194Z,98814.95
2019-01-30T01:55:07.239Z,98807.16
2019-01-30T01:57:43.628Z,98807.69
2019-01-30T02:00:18.050Z,98804.62
2019-01-30T02:02:55.238Z,98802.75
2019-01-30T02:05:26.516Z,98805.86
2019-01-30T02:07:56.892Z,98793.78
2019-01-30T02:10:37.510Z,98792.36
2019-01-30T02:13:11.827Z,98786.12
2019-01-30T02:15:42.697Z,98777.02
2019-01-30T02:18:16.601Z,98770.68
2019-01-30T02:20:47.141Z,98764.69
2019-01-30T02:23:17.505Z,98759.91
2019-01-30T02:25:47.884Z,98764.05
2019-01-30T02:28:18.354Z,98756.72
2019-01-30T02:30:48.885Z,98751.24
2019-01-30T02:33:19.226Z,98741.19
2019-01-30T02:35:49.614Z,98737.88
2019-01-30T02:38:19.957Z,98734.62
2019-01-30T02:40:50.262Z,98736.39
2019-01-30T02:43:20.670Z,98739.88
2019-01-30T02:45:51.015Z,98732.16
2019-01-30T02:48:21.362Z,98734.02
2019-01-30T02:50:51.685Z,98727.72
2019-01-30T02:53:22.090Z,98730.86
2019-01-30T02:55:54.629Z,98725.73
2019-01-30T02:58:25.037Z,98714.94
2019-01-30T03:00:59.254Z,98717.09
2019-01-30T03:03:27.865Z,98720.26
2019-01-30T03:06:03.259Z,98713.77
2019-01-30T03:08:34.589Z,98714.80
2019-01-30T03:11:04.958Z,98713.13
2019-01-30T03:13:37.622Z,98703.31
2019-01-30T03:16:08.353Z,98700.18
2019-01-30T03:18:39.027Z,98696.57
2019-01-30T03:21:09.453Z,98695.47
2019-01-30T03:23:43.699Z,98692.52
2019-01-30T03:26:14.123Z,98690.91
2019-01-30T03:28:46.033Z,98689.30
2019-01-30T03:31:18.871Z,98687.14
2019-01-30T03:33:48.457Z,98679.01
2019-01-30T03:36:21.670Z,98679.99
2019-01-30T03:38:52.332Z,98679.14
2019-01-30T03:41:23.124Z,98686.92
2019-01-30T03:43:53.822Z,98686.98
2019-01-30T03:46:24.246Z,98678.62
2019-01-30T03:48:54.518Z,98675.66
2019-01-30T03:51:25.239Z,98675.05
2019-01-30T03:53:57.210Z,98677.98
2019-01-30T03:56:27.663Z,98674.55
2019-01-30T03:58:58.057Z,98674.80
2019-01-30T04:01:28.520Z,98671.31
2019-01-30T04:03:58.921Z,98674.36
2019-01-30T04:06:29.186Z,98670.91
2019-01-30T04:08:59.577Z,98670.77
2019-01-30T04:11:29.931Z,98668.05
2019-01-30T04:14:00.917Z,98668.52
2019-01-30T04:16:31.325Z,98668.45
2019-01-30T04:19:03.159Z,98664.02
2019-01-30T04:21:35.762Z,98665.72
2019-01-30T04:24:06.518Z,98674.41
2019-01-30T04:26:36.833Z,98664.80
2019-01-30T04:29:07.686Z,98666.17
2019-01-30T04:31:38.683Z,98658.82
2019-01-30T04:34:09.099Z,98658.95
2019-01-30T04:36:39.363Z,98652.02
2019-01-30T04:39:12.222Z,98654.55
2019-01-30T04:41:42.570Z,98654.99
2019-01-30T04:44:12.956Z,98654.14
2019-01-30T04:46:44.296Z,98660.50
2019-01-30T04:49:15.421Z,98661.66
2019-01-30T04:51:46.078Z,98667.71
2019-01-30T04:54:16.425Z,98661.73
2019-01-30T04:56:46.806Z,98665.11
2019-01-30T04:59:17.174Z,98661.73
2019-01-30T05:01:49.787Z,98656.88
2019-01-30T05:04:19.695Z,98662.07
2019-01-30T05:06:50.142Z,98652.13
2019-01-30T05:09:20.544Z,98650.38
2019-01-30T05:11:50.989Z,98651.20
2019-01-30T05:14:21.712Z,98648.16
2019-01-30T05:16:52.152Z,98651.54
2019-01-30T05:19:22.476Z,98642.58
2019-01-30T05:21:55.806Z,98647.84
2019-01-30T05:24:26.198Z,98643.03
2019-01-30T05:26:56.627Z,98642.10
2019-01-30T05:29:29.270Z,98645.94
2019-01-30T05:32:05.508Z,98643.81
2019-01-30T05:34:40.291Z,98640.94
2019-01-30T05:37:10.699Z,98636.31
2019-01-30T05:39:41.101Z,98640.90
2019-01-30T05:42:11.546Z,98639.35
2019-01-30T05:44:42.002Z,98634.39
2019-01-30T05:47:12.616Z,98636.00
2019-01-30T05:49:43.047Z,98635.45
2019-01-30T05:52:13.470Z,98634.60
2019-01-30T05:54:43.838Z,98629.13
2019-01-30T05:57:14.493Z,98636.83
2019-01-30T05:59:44.861Z,98630.09
2019-01-30T06:02:15.830Z,98644.39
2019-01-30T06:04:46.256Z,98644.84
2019-01-30T06:07:16.553Z,98637.04
2019-01-30T06:09:48.196Z,98636.05
2019-01-30T06:12:18.832Z,98629.89
2019-01-30T06:14:50.312Z,98633.59
2019-01-30T06:17:20.906Z,98632.42
2019-01-30T06:19:51.270Z,98635.02
2019-01-30T06:22:21.821Z,98622.61
2019-01-30T06:24:52.235Z,98629.73
2019-01-30T06:27:22.717Z,98632.70
2019-01-30T06:29:53.367Z,98626.34
2019-01-30T06:32:23.725Z,98623.74
2019-01-30T06:34:56.661Z,98617.48
2019-01-30T06:37:27.291Z,98615.09
2019-01-30T06:39:57.772Z,98614.41
2019-01-30T06:42:31.287Z,98608.02
2019-01-30T06:45:01.783Z,98609.32
2019-01-30T06:47:32.311Z,98599.47
2019-01-30T06:50:09.883Z,98609.73
2019-01-30T06:52:40.286Z,98604.59
2019-01-30T06:55:10.654Z,98605.83
2019-01-30T06:57:41.030Z,98609.39
2019-01-30T07:00:16.565Z,98606.78
2019-01-30T07:02:47.088Z,98601.42
2019-01-30T07:05:17.455Z,98601.80
2019-01-30T07:07:47.838Z,98600.80
2019-01-30T07:10:25.723Z,98596.16
2019-01-30T07:12:56.090Z,98598.14
2019-01-30T07:15:26.462Z,98601.52
2019-01-30T07:17:56.918Z,98591.50
2019-01-30T07:20:27.311Z,98593.58
2019-01-30T07:22:57.717Z,98589.83
2019-01-30T07:25:28.248Z,98595.33
2019-01-30T07:27:58.652Z,98592.72
2019-01-30T07:30:34.640Z,98594.88
2019-01-30T07:33:05.652Z,98594.09
2019-01-30T07:35:37.133Z,98594.32
2019-01-30T07:38:07.548Z,98602.12
2019-01-30T07:40:37.976Z,98602.45
2019-01-30T07:43:11.277Z,98604.20
2019-01-30T07:45:42.278Z,98601.47
2019-01-30T07:48:12.632Z,98600.43
2019-01-30T07:50:43.062Z,98601.59
2019-01-30T07:53:13.719Z,98609.46
2019-01-30T07:55:44.092Z,98603.64
2019-01-30T07:58:14.452Z,98605.34
2019-01-30T08:00:44.924Z,98601.82
2019-01-30T08:03:15.365Z,98604.42
2019-01-30T08:05:47.250Z,98607.30
2019-01-30T08:08:17.604Z,98607.29
2019-01-30T08:10:47.991Z,98614.14
2019-01-30T08:13:18.412Z,98606.64
2019-01-30T08:15:48.858Z,98605.74
2019-01-30T08:18:19.663Z,98609.48
2019-01-30T08:20:50.291Z,98606.70
2019-01-30T08:23:20.853Z,98611.58
2019-01-30T08:25:51.754Z,98610.72
2019-01-30T08:28:22.583Z,98616.91
2019-01-30T08:30:53.389Z,98612.92
2019-01-30T08:33:23.813Z,98612.61
2019-01-30T08:35:54.159Z,98613.05
2019-01-30T08:38:27.441Z,98616.00
2019-01-30T08:40:59.215Z,98619.48
2019-01-30T08:43:29.842Z,98613.78
2019-01-30T08:46:01.242Z,98618.39
2019-01-30T08:48:31.991Z,98620.01
2019-01-30T08:51:02.215Z,98619.88
2019-01-30T08:53:32.811Z,98622.34
2019-01-30T08:56:06.231Z,98620.97
2019-01-30T08:58:39.729Z,98619.10
2019-01-30T09:01:12.435Z,98617.30
2019-01-30T09:03:47.507Z,98616.62
2019-01-30T09:06:17.975Z,98623.97
2019-01-30T09:08:48.648Z,98630.73
2019-01-30T09:11:20.105Z,98627.59
2019-01-30T09:13:50.427Z,98625.98
2019-01-30T09:16:20.880Z,98627.28
2019-01-30T09:18:52.056Z,98624.11
2019-01-30T09:21:22.482Z,98624.80
2019-01-30T09:23:52.916Z,98629.14
2019-01-30T09:26:24.172Z,98632.39
2019-01-30T09:28:57.623Z,98633.48
2019-01-30T09:31:28.267Z,98630.69
2019-01-30T09:33:58.761Z,98627.95
2019-01-30T09:36:29.391Z,98628.66
2019-01-30T09:39:00.360Z,98627.16
2019-01-30T09:41:31.053Z,98630.92
2019-01-30T09:44:01.547Z,98633.24
2019-01-30T09:46:32.002Z,98630.85
2019-01-30T09:49:02.461Z,98629.75
2019-01-30T09:51:33.249Z,98632.80
2019-01-30T09:54:03.670Z,98629.31
2019-01-30T09:56:34.055Z,98633.08
2019-01-30T09:59:04.457Z,98630.71
2019-01-30T10:01:34.773Z,98631.19
2019-01-30T10:04:05.243Z,98635.47
2019-01-30T10:06:38.902Z,98635.16
2019-01-30T10:09:12.266Z,98642.30
2019-01-30T10:11:42.692Z,98639.43
2019-01-30T10:14:12.986Z,98645.34
2019-01-30T10:16:46.371Z,98635.67
2019-01-30T10:19:16.771Z,98644.91
2019-01-30T10:21:47.508Z,98634.61
2019-01-30T10:24:17.916Z,98637.06
2019-01-30T10:26:48.528Z,98635.33
2019-01-30T10:29:18.829Z,98636.93
2019-01-30T10:31:49.534Z,98630.33
2019-01-30T10:34:20.732Z,98636.55
2019-01-30T10:36:53.923Z,98641.47
2019-01-30T10:39:24.253Z,98633.30
2019-01-30T10:41:56.043Z,98635.25
2019-01-30T10:44:26.668Z,98633.02
2019-01-30T10:46:59.652Z,98634.55
2019-01-30T10:49:32.817Z,98630.55
2019-01-30T10:52:04.767Z,98635.41
2019-01-30T10:54:35.144Z,98635.63
2019-01-30T10:57:05.738Z,98635.48
2019-01-30T10:59:36.560Z,98639.52
2019-01-30T11:02:07.074Z,98632.95
2019-01-30T11:04:37.421Z,98630.28
2019-01-30T11:07:07.801Z,98633.59
2019-01-30T11:09:38.472Z,98636.50
2019-01-30T11:12:09.363Z,98638.06
2019-01-30T11:14:41.060Z,98638.74
2019-01-30T11:17:11.663Z,98633.09
2019-01-30T11:19:42.090Z,98632.17
2019-01-30T11:22:12.511Z,98636.78
2019-01-30T11:24:46.064Z,98633.33
2019-01-30T11:27:16.441Z,98634.63
2019-01-30T11:29:47.374Z,98637.63
2019-01-30T11:32:18.049Z,98631.36
2019-01-30T11:34:48.497Z,98632.92
2019-01-30T11:37:19.336Z,98631.36
2019-01-30T11:39:49.842Z,98623.48
2019-01-30T11:42:20.330Z,98628.39
2019-01-30T11:44:51.610Z,98628.53
2019-01-30T11:47:21.992Z,98620.68
2019-01-30T11:49:52.466Z,98625.01
2019-01-30T11:52:22.916Z,98620.73
2019-01-30T11:54:53.339Z,98623.27
2019-01-30T11:57:27.609Z,98626.22
2019-01-30T11:59:58.480Z,98628.74
2019-01-30T12:02:28.927Z,98622.39
2019-01-30T12:04:59.362Z,98623.83
2019-01-30T12:07:30.170Z,98622.64
2019-01-30T12:10:00.660Z,98616.99
2019-01-30T12:12:33.957Z,98624.48
2019-01-30T12:15:06.401Z,98625.14
2019-01-30T12:17:36.914Z,98620.45
2019-01-30T12:20:11.214Z,98620.80
2019-01-30T12:22:41.876Z,98618.00
2019-01-30T12:25:14.205Z,98625.93
2019-01-30T12:27:44.964Z,98630.03
2019-01-30T12:30:23.350Z,98628.36
2019-01-30T12:32:54.590Z,98626.58
2019-01-30T12:35:25.105Z,98625.55
2019-01-30T12:37:55.658Z,98624.02
2019-01-30T12:40:27.218Z,98632.15
2019-01-30T12:42:59.091Z,98627.53
2019-01-30T12:45:33.915Z,98623.50
2019-01-30T12:48:10.373Z,98623.91
2019-01-30T12:50:39.804Z,98635.46
2019-01-30T12:53:11.086Z,98634.56
2019-01-30T12:55:42.196Z,98637.84
2019-01-30T12:58:12.691Z,98650.52
2019-01-30T13:00:43.350Z,98643.66
2019-01-30T13:03:13.727Z,98637.30
2019-01-30T13:05:44.143Z,98638.97
2019-01-30T13:08:15.422Z,98628.45
2019-01-30T13:10:47.281Z,98634.28
2019-01-30T13:13:17.678Z,98630.52
2019-01-30T13:15:48.270Z,98634.35
2019-01-30T13:18:19.114Z,98640.53
2019-01-30T13:20:49.563Z,98637.30
2019-01-30T13:23:21.008Z,98649.22
2019-01-30T13:25:51.443Z,98655.65
2019-01-30T13:28:21.869Z,98662.59
2019-01-30T13:30:52.208Z,98660.19
2019-01-30T13:33:22.939Z,98662.14
2019-01-30T13:35:53.327Z,98662.45
2019-01-30T13:38:23.821Z,98663.89
2019-01-30T13:40:54.711Z,98665.12
2019-01-30T13:43:26.898Z,98659.75
2019-01-30T13:46:05.246Z,98660.05
2019-01-30T13:48:31.778Z,98667.14
2019-01-30T13:51:02.300Z,98665.97
2019-01-30T13:53:32.821Z,98668.44
2019-01-30T13:56:03.749Z,98676.03
2019-01-30T13:58:34.155Z,98675.72
2019-01-30T14:01:04.663Z,98676.52
2019-01-30T14:03:37.543Z,98678.31
2019-01-30T14:06:07.697Z,98687.66
2019-01-30T14:08:41.080Z,98687.66
2019-01-30T14:11:11.732Z,98689.30
2019-01-30T14:13:42.535Z,98694.81
2019-01-30T14:16:12.962Z,98694.56
2019-01-30T14:18:43.549Z,98694.41
2019-01-30T14:21:13.934Z,98696.55
2019-01-30T14:23:44.307Z,98690.78
2019-01-30T14:26:15.202Z,98705.70
2019-01-30T14:28:45.610Z,98701.42
2019-01-30T14:31:16.023Z,98700.64
2019-01-30T14:33:46.770Z,98705.89
2019-01-30T14:36:17.681Z,98706.75
2019-01-30T14:38:48.818Z,98703.95
2019-01-30T14:41:19.234Z,98712.70
2019-01-30T14:43:49.730Z,98713.56
2019-01-30T14:46:20.070Z,98716.50
2019-01-30T14:48:50.540Z,98721.44
2019-01-30T14:51:23.158Z,98720.64
2019-01-30T14:53:53.620Z,98719.73
2019-01-30T14:56:24.062Z,98732.02
2019-01-30T14:58:54.565Z,98732.46
2019-01-30T15:01:25.022Z,98732.08
2019-01-30T15:03:55.333Z,98739.88
2019-01-30T15:06:28.008Z,98743.11
2019-01-30T15:08:59.491Z,98743.36
2019-01-30T15:11:29.906Z,98748.14
2019-01-30T15:14:00.564Z,98749.69
2019-01-30T15:16:31.182Z,98751.91
2019-01-30T15:19:04.793Z,98756.05
2019-01-30T15:21:35.233Z,98757.60
2019-01-30T15:24:05.803Z,98761.98
2019-01-30T15:26:36.263Z,98761.52
2019-01-30T15:29:06.677Z,98758.16
2019-01-30T15:31:37.085Z,98767.97
2019-01-30T15:34:07.480Z,98766.63
2019-01-30T15:36:38.042Z,98773.84
2019-01-30T15:39:12.975Z,98774.73
2019-01-30T15:41:43.664Z,98774.55
2019-01-30T15:44:16.100Z,98779.30
2019-01-30T15:46:46.540Z,98787.44
2019-01-30T15:49:16.947Z,98789.18
2019-01-30T15:51:47.353Z,98794.55
2019-01-30T15:54:18.887Z,98793.58
2019-01-30T15:56:49.474Z,98801.61
2019-01-30T15:59:21.008Z,98800.87
2019-01-30T16:01:51.504Z,98801.55
2019-01-30T16:04:23.076Z,98805.55
2019-01-30T16:06:55.896Z,98809.16
2019-01-30T16:09:30.832Z,98802.77
2019-01-30T16:12:09.747Z,98805.99
2019-01-30T16:14:43.097Z,98811.19
2019-01-30T16:17:13.566Z,98812.48
2019-01-30T16:19:44.209Z,98818.47
2019-01-30T16:22:14.630Z,98817.81
2019-01-30T16:24:45.407Z,98820.47
2019-01-30T16:27:17.033Z,98824.42
2019-01-30T16:29:48.390Z,98826.40
2019-01-30T16:32:18.820Z,98830.66
2019-01-30T16:34:49.276Z,98837.64
2019-01-30T16:37:19.728Z,98833.75
2019-01-30T16:39:50.233Z,98838.15
2019-01-30T16:42:20.895Z,98837.32
2019-01-30T16:44:51.388Z,98836.29
2019-01-30T16:47:21.917Z,98843.63
2019-01-30T16:49:52.360Z,98848.03
2019-01-30T16:52:22.961Z,98847.23
2019-01-30T16:54:54.504Z,98855.94
2019-01-30T16:57:25.498Z,98856.44
2019-01-30T16:59:55.921Z,98856.44
2019-01-30T17:02:26.435Z,98865.08
2019-01-30T17:04:57.049Z,98859.56
2019-01-30T17:07:28.385Z,98869.09
2019-01-30T17:10:01.011Z,98875.58
2019-01-30T17:12:31.661Z,98872.42
2019-01-30T17:15:02.185Z,98881.89
2019-01-30T17:17:32.648Z,98884.72
2019-01-30T17:20:03.139Z,98884.16
2019-01-30T17:22:34.234Z,98882.50
2019-01-30T17:25:05.433Z,98887.31
2019-01-30T17:27:38.164Z,98888.87
2019-01-30T17:30:30.241Z,98891.09
2019-01-30T17:33:07.002Z,98894.02
2019-01-30T17:35:38.137Z,98894.75
2019-01-30T17:38:09.018Z,98894.58
2019-01-30T17:40:39.833Z,98902.48
2019-01-30T17:43:11.687Z,98896.47
2019-01-30T17:45:43.727Z,98902.77
2019-01-30T17:48:18.436Z,98905.99
2019-01-30T17:50:48.884Z,98908.17
2019-01-30T17:53:21.127Z,98904.70
2019-01-30T17:55:53.783Z,98906.05
2019-01-30T17:58:24.507Z,98914.72
2019-01-30T18:01:04.491Z,98913.48
2019-01-30T18:03:37.193Z,98913.84
2019-01-30T18:06:30.247Z,98917.84
2019-01-30T18:09:00.922Z,98922.80
2019-01-30T18:11:31.190Z,98924.50
2019-01-30T18:14:01.520Z,98928.67
2019-01-30T18:16:34.977Z,98927.81
2019-01-30T18:19:08.938Z,98927.31
2019-01-30T18:21:42.856Z,98929.58
2019-01-30T18:24:13.378Z,98932.17
2019-01-30T18:26:43.807Z,98936.70
2019-01-30T18:29:21.879Z,98942.45
2019-01-30T18:31:55.720Z,98938.55
2019-01-30T18:34:26.255Z,98933.42
2019-01-30T18:36:58.558Z,98942.09
2019-01-30T18:39:30.054Z,98942.51
2019-01-30T18:42:06.736Z,98937.70
2019-01-30T18:44:37.414Z,98938.02
2019-01-30T18:47:07.912Z,98939.19
2019-01-30T18:49:42.056Z,98940.54
2019-01-30T18:52:12.727Z,98940.63
2019-01-30T18:54:43.480Z,98942.78
2019-01-30T18:57:14.095Z,98945.79
2019-01-30T18:59:44.460Z,98948.38
2019-01-30T19:02:15.215Z,98951.86
2019-01-30T19:04:45.781Z,98952.16
2019-01-30T19:07:19.284Z,98947.47
2019-01-30T19:09:49.706Z,98956.11
2019-01-30T19:12:22.496Z,98952.22
2019-01-30T19:14:52.912Z,98952.66
2019-01-30T19:17:23.560Z,98949.15
2019-01-30T19:19:59.938Z,98954.88
2019-01-30T19:22:30.450Z,98956.67
2019-01-30T19:25:01.244Z,98953.59
2019-01-30T19:27:31.874Z,98955.38
2019-01-30T19:30:04.404Z,98954.45
2019-01-30T19:32:34.424Z,98958.30
2019-01-30T19:35:06.204Z,98963.98
2019-01-30T19:37:37.984Z,98965.92
2019-01-30T19:40:08.854Z,98965.12
2019-01-30T19:42:39.657Z,98965.17
2019-01-30T19:45:12.071Z,98964.27
2019-01-30T19:47:55.236Z,98970.03
2019-01-30T19:50:35.701Z,98961.51
2019-01-30T19:53:09.643Z,98974.38
2019-01-30T19:55:43.836Z,98972.97
2019-01-30T19:58:16.465Z,98975.55
2019-01-30T20:00:54.982Z,98978.84
2019-01-30T20:03:34.603Z,98974.64
2019-01-30T20:06:07.088Z,98977.24
2019-01-30T20:08:37.978Z,98975.55
2019-01-30T20:11:12.195Z,98980.80
2019-01-30T20:13:43.647Z,98977.35
2019-01-30T20:16:18.815Z,98980.75
2019-01-30T20:18:50.393Z,98979.56
2019-01-30T20:21:22.079Z,98979.95
2019-01-30T20:24:01.106Z,98983.34
2019-01-30T20:26:34.011Z,98986.69
2019-01-30T20:29:06.466Z,98982.80
2019-01-30T20:31:43.497Z,98990.00
2019-01-30T20:34:16.380Z,98987.51
2019-01-30T20:36:47.602Z,98991.46
2019-01-30T20:39:19.604Z,98996.27
2019-01-30T20:41:52.936Z,98989.78
2019-01-30T20:44:25.289Z,98990.22
2019-01-30T20:47:01.736Z,98992.87
2019-01-30T20:49:33.201Z,98999.03
2019-01-30T20:52:05.454Z,98999.89
2019-01-30T20:54:35.869Z,99004.22
2019-01-30T20:57:06.260Z,99009.02
2019-01-30T20:59:36.815Z,99007.31
2019-01-30T21:02:07.779Z,99008.91
2019-01-30T21:04:38.494Z,99013.58
2019-01-30T21:07:09.138Z,99016.17
2019-01-30T21:09:39.592Z,99015.78
2019-01-30T21:12:10.118Z,99022.28
2019-01-30T21:14:40.536Z,99021.78
2019-01-30T21:17:11.154Z,99029.46
2019-01-30T21:19:41.548Z,99026.70
2019-01-30T21:22:12.475Z,99029.52
2019-01-30T21:24:42.979Z,99026.92
2019-01-30T21:27:13.462Z,99025.30
2019-01-30T21:29:43.885Z,99035.63
2019-01-30T21:32:14.288Z,99036.81
2019-01-30T21:34:44.917Z,99035.89
2019-01-30T21:37:15.395Z,99031.02
2019-01-30T21:39:48.088Z,99029.48
2019-01-30T21:42:18.498Z,99033.48
2019-01-30T21:44:48.938Z,99031.92
2019-01-30T21:47:19.368Z,99035.02
2019-01-30T21:49:52.630Z,99033.88
2019-01-30T21:52:23.231Z,99038.47
2019-01-30T21:54:53.624Z,99033.88
2019-01-30T21:57:26.424Z,99041.67
2019-01-30T21:59:57.139Z,99035.29
2019-01-30T22:02:27.660Z,99036.20
2019-01-30T22:04:58.078Z,99039.19
2019-01-30T22:07:28.546Z,99038.69
2019-01-30T22:09:59.555Z,99045.41
2019-01-30T22:12:30.806Z,99042.17
2019-01-30T22:15:01.088Z,99046.45
2019-01-30T22:17:31.536Z,99046.97
2019-01-30T22:20:02.074Z,99045.31
2019-01-30T22:22:35.667Z,99044.51
2019-01-30T22:25:19.663Z,99044.02
2019-01-30T22:27:44.286Z,99044.12
2019-01-30T22:30:17.470Z,99042.50
2019-01-30T22:32:48.412Z,99039.59
2019-01-30T22:35:18.867Z,99041.14
2019-01-30T22:37:49.184Z,99044.23
2019-01-30T22:40:19.877Z,99048.02
2019-01-30T22:42:50.533Z,99052.41
2019-01-30T22:45:20.937Z,99047.84
2019-01-30T22:47:51.247Z,99056.02
2019-01-30T22:50:21.893Z,99061.31
2019-01-30T22:52:52.228Z,99064.52
2019-01-30T22:55:23.567Z,99064.23
2019-01-30T22:57:53.991Z,99066.41
2019-01-30T23:01:09.977Z,99066.83
2019-01-30T23:04:30.347Z,99067.91
2019-01-30T23:07:44.686Z,99068.82
2019-01-30T23:11:14.158Z,99070.56
2019-01-30T23:14:06.327Z,99067.91
2019-01-30T23:17:00.296Z,99075.91
2019-01-30T23:19:59.926Z,99087.77
2019-01-30T23:23:09.213Z,99085.27
2019-01-30T23:25:47.919Z,99080.58
2019-01-30T23:28:56.632Z,99083.27
2019-01-30T23:32:03.379Z,99088.72
2019-01-30T23:35:11.559Z,99087.01
2019-01-30T23:37:53.058Z,99084.41
2019-01-30T23:41:07.957Z,99093.45
2019-01-30T23:44:36.131Z,99090.91
2019-01-30T23:48:05.511Z,99084.19
2019-01-30T23:51:10.436Z,99091.53
2019-01-30T23:54:27.865Z,99085.38
2019-01-30T23:57:31.878Z,99086.67
